createdAt,value
2022-08-03T00:00:25.934Z,99778.56
2022-08-03T00:04:34.106Z,99781.16
2022-08-03T00:08:40.225Z,99782.16
2022-08-03T00:12:42.209Z,99777.84
2022-08-03T00:16:43.823Z,99777.69
2022-08-03T00:20:45.470Z,99777.16
2022-08-03T00:24:47.069Z,99772.19
2022-08-03T00:28:49.276Z,99769.19
2022-08-03T00:32:50.898Z,99775.75
2022-08-03T00:36:52.534Z,99772.13
2022-08-03T00:40:54.209Z,99783.97
2022-08-03T00:44:55.800Z,99769.16
2022-08-03T00:48:57.450Z,99763.84
2022-08-03T00:52:59.945Z,99765.84
2022-08-03T00:57:02.043Z,99761.22
2022-08-03T01:01:07.129Z,99763.81
2022-08-03T01:05:10.767Z,99762.63
2022-08-03T01:09:16.244Z,99764.09
2022-08-03T01:14:01.313Z,99753.53
2022-08-03T01:18:06.159Z,99760.28
2022-08-03T01:22:26.621Z,99752.72
2022-08-03T01:26:54.615Z,99759.66
2022-08-03T01:31:01.566Z,99757.34
2022-08-03T01:35:09.395Z,99751.41
2022-08-03T01:39:11.981Z,99744.34
2022-08-03T01:47:40.502Z,99739.91
2022-08-03T01:51:57.760Z,99741.25
2022-08-03T01:56:06.223Z,99740.44
2022-08-03T02:00:12.094Z,99747.19
2022-08-03T02:04:17.532Z,99740.56
2022-08-03T02:08:24.202Z,99738.94
2022-08-03T02:12:27.722Z,99732.81
2022-08-03T02:16:31.550Z,99733.97
2022-08-03T02:20:36.394Z,99732.63
2022-08-03T02:24:38.501Z,99735.44
2022-08-03T02:28:43.274Z,99734.59
2022-08-03T02:32:51.608Z,99732.94
2022-08-03T02:36:56.190Z,99736.59
2022-08-03T02:40:58.903Z,99733.28
2022-08-03T02:45:02.967Z,99739.00
2022-08-03T02:49:41.156Z,99736.03
2022-08-03T02:53:29.945Z,99723.19
2022-08-03T03:01:52.128Z,99721.19
2022-08-03T03:05:57.745Z,99723.31
2022-08-03T03:10:03.020Z,99719.13
2022-08-03T03:14:05.648Z,99736.78
2022-08-03T03:18:11.987Z,99740.34
2022-08-03T03:22:15.799Z,99742.03
2022-08-03T03:26:18.270Z,99728.44
2022-08-03T03:30:19.923Z,99743.78
2022-08-03T03:34:21.691Z,99737.59
2022-08-03T03:38:25.893Z,99738.34
2022-08-03T03:42:27.452Z,99741.84
2022-08-03T03:46:29.801Z,99738.94
2022-08-03T03:50:32.752Z,99738.91
2022-08-03T03:54:43.874Z,99737.16
2022-08-03T03:58:45.497Z,99743.19
2022-08-03T04:02:47.395Z,99739.56
2022-08-03T04:07:07.727Z,99735.94
2022-08-03T04:11:16.815Z,99739.56
2022-08-03T04:15:23.402Z,99735.94
2022-08-03T04:19:35.714Z,99735.94
2022-08-03T04:23:44.855Z,99731.19
2022-08-03T04:28:19.727Z,99732.00
2022-08-03T04:32:12.409Z,99737.06
2022-08-03T04:36:17.842Z,99742.16
2022-08-03T04:40:29.808Z,99746.06
2022-08-03T04:44:37.675Z,99745.44
2022-08-03T04:48:42.365Z,99754.88
2022-08-03T04:52:46.352Z,99761.81
2022-08-03T04:56:48.142Z,99762.03
2022-08-03T05:00:51.420Z,99758.59
2022-08-03T05:04:53.100Z,99756.53
2022-08-03T05:08:57.672Z,99762.84
2022-08-03T05:12:59.315Z,99754.88
2022-08-03T05:17:00.917Z,99758.94
2022-08-03T05:21:02.537Z,99754.56
2022-08-03T05:25:06.013Z,99760.06
2022-08-03T05:29:07.917Z,99757.19
2022-08-03T05:33:09.539Z,99767.59
2022-08-03T05:37:11.705Z,99770.81
2022-08-03T05:41:21.125Z,99763.63
2022-08-03T05:45:28.233Z,99772.94
2022-08-03T05:49:30.889Z,99778.94
2022-08-03T05:53:35.002Z,99774.25
2022-08-03T05:57:37.390Z,99775.44
2022-08-03T06:01:39.493Z,99781.97
2022-08-03T06:05:43.311Z,99783.09
2022-08-03T06:10:35.941Z,99784.50
2022-08-03T06:14:24.800Z,99786.56
2022-08-03T06:18:26.523Z,99786.38
2022-08-03T06:22:28.206Z,99786.31
2022-08-03T06:26:29.958Z,99783.16
2022-08-03T06:30:31.844Z,99777.47
2022-08-03T06:34:35.749Z,99782.13
2022-08-03T06:38:37.524Z,99781.22
2022-08-03T06:42:39.369Z,99781.22
2022-08-03T06:46:41.577Z,99778.41
2022-08-03T06:50:44.457Z,99780.03
2022-08-03T06:54:46.256Z,99784.25
2022-08-03T06:58:48.198Z,99779.34
2022-08-03T07:02:53.608Z,99784.69
2022-08-03T07:06:58.629Z,99781.19
2022-08-03T07:11:00.347Z,99792.88
2022-08-03T07:15:03.343Z,99790.78
2022-08-03T07:19:05.207Z,99779.88
2022-08-03T07:23:06.985Z,99785.81
2022-08-03T07:27:09.904Z,99792.22
2022-08-03T07:31:11.488Z,99788.53
2022-08-03T07:35:24.886Z,99784.72
2022-08-03T07:39:26.970Z,99783.31
2022-08-03T07:43:28.723Z,99782.81
2022-08-03T07:47:34.848Z,99783.31
2022-08-03T07:51:37.784Z,99785.06
2022-08-03T07:55:39.404Z,99787.53
2022-08-03T07:59:57.191Z,99783.28
2022-08-03T08:04:02.617Z,99780.91
2022-08-03T08:08:05.431Z,99781.34
2022-08-03T08:12:15.353Z,99778.16
2022-08-03T08:16:18.649Z,99773.38
2022-08-03T08:20:30.501Z,99773.38
2022-08-03T08:24:34.094Z,99778.81
2022-08-03T08:28:37.792Z,99774.41
2022-08-03T08:32:39.520Z,99769.22
2022-08-03T08:36:41.101Z,99775.66
2022-08-03T08:40:42.968Z,99765.81
2022-08-03T08:44:44.593Z,99764.00
2022-08-03T08:48:49.684Z,99766.50
2022-08-03T08:52:53.857Z,99765.50
2022-08-03T08:56:57.448Z,99761.19
2022-08-03T09:00:59.334Z,99765.53
2022-08-03T09:05:06.930Z,99758.91
2022-08-03T09:09:09.048Z,99752.22
2022-08-03T09:13:34.028Z,99754.56
2022-08-03T09:17:41.775Z,99753.81
2022-08-03T09:21:43.368Z,99747.66
2022-08-03T09:25:46.172Z,99747.31
2022-08-03T09:29:49.804Z,99746.22
2022-08-03T09:33:54.734Z,99750.13
2022-08-03T09:38:12.702Z,99749.78
2022-08-03T09:42:19.139Z,99749.41
2022-08-03T09:46:26.018Z,99749.50
2022-08-03T09:50:28.120Z,99746.72
2022-08-03T09:54:31.806Z,99742.59
2022-08-03T09:58:33.383Z,99738.28
2022-08-03T10:02:35.076Z,99730.16
2022-08-03T10:06:36.788Z,99735.53
2022-08-03T10:10:44.002Z,99738.03
2022-08-03T10:14:47.075Z,99725.84
2022-08-03T10:18:48.697Z,99717.63
2022-08-03T10:22:50.675Z,99720.94
2022-08-03T10:26:57.063Z,99723.34
2022-08-03T10:30:58.791Z,99713.88
2022-08-03T10:35:19.730Z,99701.59
2022-08-03T10:39:23.076Z,99696.56
2022-08-03T10:43:36.397Z,99699.50
2022-08-03T10:47:38.250Z,99685.16
2022-08-03T10:51:41.119Z,99682.28
2022-08-03T10:56:03.818Z,99679.44
2022-08-03T11:00:08.292Z,99682.34
2022-08-03T11:04:21.476Z,99675.59
2022-08-03T11:08:28.484Z,99665.41
2022-08-03T11:12:33.111Z,99660.72
2022-08-03T11:16:39.374Z,99656.78
2022-08-03T11:20:52.348Z,99660.31
2022-08-03T11:24:54.456Z,99652.13
2022-08-03T11:29:29.687Z,99646.75
2022-08-03T11:33:31.923Z,99661.00
2022-08-03T11:37:33.553Z,99653.91
2022-08-03T11:41:44.831Z,99652.41
2022-08-03T11:46:04.208Z,99647.53
2022-08-03T11:50:06.366Z,99646.50
2022-08-03T11:54:09.517Z,99638.00
2022-08-03T11:59:09.347Z,99633.41
2022-08-03T12:02:58.129Z,99623.63
2022-08-03T12:07:01.191Z,99626.03
2022-08-03T12:11:06.763Z,99627.91
2022-08-03T12:15:09.441Z,99614.50
2022-08-03T12:19:11.079Z,99616.16
2022-08-03T12:23:13.560Z,99614.16
2022-08-03T12:27:25.712Z,99614.72
2022-08-03T12:31:27.403Z,99604.66
2022-08-03T12:35:29.513Z,99608.84
2022-08-03T12:39:31.574Z,99605.25
2022-08-03T12:43:36.664Z,99605.13
2022-08-03T12:47:56.527Z,99601.19
2022-08-03T12:52:05.321Z,99605.47
2022-08-03T12:56:11.017Z,99594.81
2022-08-03T13:00:21.652Z,99597.25
2022-08-03T13:04:34.062Z,99601.19
2022-08-03T13:08:35.749Z,99596.56
2022-08-03T13:12:50.199Z,99594.41
2022-08-03T13:16:52.044Z,99586.91
2022-08-03T13:20:54.230Z,99582.41
2022-08-03T13:25:01.314Z,99577.88
2022-08-03T13:29:02.964Z,99576.53
2022-08-03T13:33:06.026Z,99575.69
2022-08-03T13:37:09.821Z,99576.06
2022-08-03T13:41:15.460Z,99575.16
2022-08-03T13:45:17.869Z,99571.97
2022-08-03T13:49:19.717Z,99552.06
2022-08-03T13:53:21.852Z,99557.75
2022-08-03T13:58:04.434Z,99549.81
2022-08-03T14:01:54.999Z,99548.13
2022-08-03T14:05:56.820Z,99543.75
2022-08-03T14:09:59.572Z,99538.75
2022-08-03T14:14:01.895Z,99541.19
2022-08-03T14:18:03.770Z,99539.31
2022-08-03T14:22:06.864Z,99536.84
2022-08-03T14:26:09.409Z,99535.97
2022-08-03T14:30:11.842Z,99535.03
2022-08-03T14:34:13.532Z,99537.97
2022-08-03T14:38:15.625Z,99527.34
2022-08-03T14:42:18.530Z,99534.56
2022-08-03T14:46:20.893Z,99528.59
2022-08-03T14:50:38.230Z,99520.59
2022-08-03T14:54:42.634Z,99513.97
2022-08-03T14:58:44.355Z,99508.41
2022-08-03T15:02:46.000Z,99505.13
2022-08-03T15:06:51.269Z,99505.47
2022-08-03T15:10:55.570Z,99499.88
2022-08-03T15:14:58.188Z,99495.47
2022-08-03T15:19:00.923Z,99496.78
2022-08-03T15:23:02.690Z,99499.13
2022-08-03T15:27:11.105Z,99483.44
2022-08-03T15:31:12.733Z,99480.56
2022-08-03T15:35:23.822Z,99471.84
2022-08-03T15:39:25.431Z,99472.66
2022-08-03T15:43:27.054Z,99463.78
2022-08-03T15:47:28.738Z,99471.22
2022-08-03T15:51:30.603Z,99467.84
2022-08-03T15:55:32.849Z,99456.66
2022-08-03T15:59:35.027Z,99460.78
2022-08-03T16:03:36.683Z,99451.97
2022-08-03T16:08:02.702Z,99445.56
2022-08-03T16:12:05.829Z,99448.63
2022-08-03T16:16:20.044Z,99448.19
2022-08-03T16:20:30.932Z,99444.25
2022-08-03T16:24:36.115Z,99443.25
2022-08-03T16:28:41.024Z,99441.81
2022-08-03T16:32:45.679Z,99446.97
2022-08-03T16:36:47.350Z,99451.72
2022-08-03T16:40:52.418Z,99442.88
2022-08-03T16:44:54.061Z,99438.91
2022-08-03T16:48:55.605Z,99446.34
2022-08-03T16:52:57.197Z,99437.91
2022-08-03T16:56:58.703Z,99431.44
2022-08-03T17:01:00.383Z,99439.22
2022-08-03T17:05:12.633Z,99444.97
2022-08-03T17:09:19.137Z,99434.81
2022-08-03T17:13:22.781Z,99439.75
2022-08-03T17:17:37.631Z,99439.47
2022-08-03T17:21:56.544Z,99437.47
2022-08-03T17:26:02.326Z,99442.22
2022-08-03T17:30:09.373Z,99436.47
2022-08-03T17:34:11.295Z,99432.84
2022-08-03T17:38:15.778Z,99439.06
2022-08-03T17:42:31.631Z,99442.81
2022-08-03T17:46:34.794Z,99437.91
2022-08-03T17:50:50.459Z,99442.47
2022-08-03T17:55:54.823Z,99449.88
2022-08-03T17:59:51.400Z,99442.56
2022-08-03T18:04:00.079Z,99446.22
2022-08-03T18:08:05.818Z,99446.28
2022-08-03T18:12:14.647Z,99450.81
2022-08-03T18:16:24.654Z,99451.28
2022-08-03T18:20:33.173Z,99449.69
2022-08-03T18:24:42.202Z,99452.16
2022-08-03T18:28:44.591Z,99450.13
2022-08-03T18:33:01.032Z,99457.47
2022-08-03T18:37:08.709Z,99459.47
2022-08-03T18:41:15.629Z,99450.03
2022-08-03T18:45:55.737Z,99449.50
2022-08-03T18:50:20.727Z,99447.75
2022-08-03T18:55:07.296Z,99454.91
2022-08-03T18:59:30.606Z,99454.25
2022-08-03T19:08:03.547Z,99460.34
2022-08-03T19:12:37.418Z,99465.34
2022-08-03T19:16:47.275Z,99467.94
2022-08-03T19:20:53.174Z,99456.75
2022-08-03T19:24:59.001Z,99464.66
2022-08-03T19:29:02.290Z,99477.38
2022-08-03T19:33:05.663Z,99469.56
2022-08-03T19:37:12.364Z,99477.44
2022-08-03T19:41:18.936Z,99473.19
2022-08-03T19:50:05.240Z,99472.41
2022-08-03T19:54:12.891Z,99471.03
2022-08-03T19:58:17.701Z,99474.13
2022-08-03T20:02:29.782Z,99467.03
2022-08-03T20:06:31.676Z,99471.72
2022-08-03T20:10:34.745Z,99476.41
2022-08-03T20:14:40.476Z,99469.44
2022-08-03T20:18:43.275Z,99463.19
2022-08-03T20:22:48.276Z,99470.81
2022-08-03T20:26:53.502Z,99462.16
2022-08-03T20:30:55.280Z,99466.97
2022-08-03T20:34:57.040Z,99468.88
2022-08-03T20:39:00.384Z,99467.53
2022-08-03T20:43:02.082Z,99473.41
2022-08-03T20:47:04.560Z,99464.72
2022-08-03T20:51:20.151Z,99468.59
2022-08-03T20:55:47.783Z,99468.81
2022-08-03T20:59:56.537Z,99461.00
2022-08-03T21:03:59.265Z,99464.91
2022-08-03T21:08:07.539Z,99461.22
2022-08-03T21:12:15.486Z,99450.19
2022-08-03T21:13:02.897Z,99470.56
2022-08-03T21:13:10.391Z,99455.25
2022-08-03T21:16:21.807Z,99454.94
2022-08-03T21:20:30.913Z,99454.88
2022-08-03T21:24:33.529Z,99455.59
2022-08-03T21:28:35.282Z,99444.63
2022-08-03T21:32:40.417Z,99449.81
2022-08-03T21:36:42.519Z,99446.56
2022-08-03T21:40:44.836Z,99444.09
2022-08-03T21:44:46.741Z,99439.19
2022-08-03T21:50:05.026Z,99444.75
2022-08-03T21:53:22.368Z,99437.75
2022-08-03T21:57:25.754Z,99439.31
2022-08-03T22:01:35.213Z,99435.59
2022-08-03T22:05:43.729Z,99445.63
2022-08-03T22:09:50.233Z,99439.88
2022-08-03T22:13:53.455Z,99438.63
2022-08-03T22:17:57.337Z,99443.44
2022-08-03T22:22:01.550Z,99445.44
2022-08-03T22:26:06.123Z,99441.78
2022-08-03T22:30:13.727Z,99438.53
2022-08-03T22:34:15.448Z,99439.69
2022-08-03T22:38:18.563Z,99442.53
2022-08-03T22:42:21.849Z,99442.53
2022-08-03T22:46:26.705Z,99444.19
2022-08-03T22:50:32.811Z,99439.69
2022-08-03T22:54:35.797Z,99442.53
2022-08-03T22:58:37.547Z,99446.63
2022-08-03T23:02:42.156Z,99442.19
2022-08-03T23:06:48.782Z,99441.72
2022-08-03T23:10:51.973Z,99448.19
2022-08-03T23:14:56.554Z,99451.47
2022-08-03T23:18:59.631Z,99448.19
2022-08-03T23:23:01.604Z,99445.00
2022-08-03T23:27:04.826Z,99446.16
2022-08-03T23:31:08.385Z,99445.00
2022-08-03T23:36:18.704Z,99445.44
2022-08-03T23:39:52.981Z,99444.34
2022-08-03T23:43:56.012Z,99436.31
2022-08-03T23:47:57.599Z,99443.75
2022-08-03T23:52:10.136Z,99437.38
2022-08-03T23:56:29.484Z,99435.75
